Glencoe, Missouri
Current Conditions -  °F | °C
As of 5:54 AM on Monday 22 Dec 2014 (Local Time) from KSUS Reporting Station
Light Rain Light Rain  
Wind Chill:   Ceiling: 2900
Heat Index:   Visibility: 5mi
Dew Point:   Wind: 6mph
Humidity: 86%   Direction: 110°ESE
Pressure: 29.77"   Gusts: NA
Location:  38.54°N, 90.62°W
Report Text: KSUS 221154Z 11005KT 5SM -RA BR BKN029 OVC050 04/02 A2977 RMK AO2 RAB1059 SLP086 P0003 60003 70003 T00390017 10056 20039 56026
Loading
Personal Weather Stations






























Interactive Weather Map New forecast layout! Learn more

10-Day Weather Forecast

Advertisements
Track Severe Weather on mobile